Time;durP1;ratioP1;P1;durP2;ratioP2;P2;SDS_P1;SDS_P2;PMS_P1;PMS_P2;Temp;Humidity;BMP_temperature;BMP_pressure;BME280_temperature;BME280_humidity;BME280_pressure;Samples;Min_cycle;Max_cycle;Signal;HPM_P1;HPM_P2
2023/10/28 00:00:26;;;;;;;0.00;0.00;;;;;;;7.64;100.00;94499.53;1022770;28;20028;-72
2023/10/28 00:00:58;;;;;;;0.00;0.00;;;;;;;7.64;100.00;94496.91;1026608;28;20086;-72
2023/10/28 00:01:30;;;;;;;0.00;0.00;;;;;;;7.65;100.00;94501.13;1022286;29;20278;-74
2023/10/28 00:02:00;;;;;;;0.50;0.50;;;;;;;7.66;100.00;94499.28;1022697;29;20298;-73
2023/10/28 00:02:31;;;;;;;0.03;0.03;;;;;;;7.66;100.00;94492.22;1022890;28;20691;-73
2023/10/28 00:03:01;;;;;;;0.00;0.00;;;;;;;7.68;100.00;94495.34;1026920;28;20023;-72
2023/10/28 00:03:32;;;;;;;0.00;0.00;;;;;;;7.67;100.00;94499.00;1027481;28;20077;-73
2023/10/28 00:04:02;;;;;;;0.10;0.10;;;;;;;7.68;100.00;94495.34;1023441;29;20142;-74
2023/10/28 00:04:34;;;;;;;0.45;0.45;;;;;;;7.67;100.00;94493.75;1023379;28;20121;-73
2023/10/28 00:05:05;;;;;;;0.00;0.00;;;;;;;7.69;100.00;94501.34;1023367;29;20074;-73
2023/10/28 00:05:36;;;;;;;0.00;0.00;;;;;;;7.65;100.00;94485.44;1023477;29;20274;-73
2023/10/28 00:06:07;;;;;;;0.00;0.00;;;;;;;7.67;100.00;94490.38;1027427;28;20274;-74
2023/10/28 00:06:39;;;;;;;0.00;0.00;;;;;;;7.72;100.00;94485.91;1019305;29;20071;-72
2023/10/28 00:07:09;;;;;;;0.10;0.10;;;;;;;7.76;100.00;94491.34;1023402;29;20322;-73
2023/10/28 00:07:41;;;;;;;0.00;0.00;;;;;;;7.86;100.00;94500.94;1023405;29;20315;-71
2023/10/28 00:08:11;;;;;;;0.10;0.10;;;;;;;7.88;100.00;94501.41;1023556;28;20126;-74
2023/10/28 00:08:43;;;;;;;0.00;0.00;;;;;;;7.85;100.00;94489.72;1027377;28;20757;-74
2023/10/28 00:09:13;;;;;;;0.00;0.00;;;;;;;7.85;100.00;94488.94;1019376;29;20055;-73
2023/10/28 00:09:43;;;;;;;0.00;0.00;;;;;;;7.89;100.00;94506.38;1015205;29;21083;-72
2023/10/28 00:10:14;;;;;;;0.45;0.22;;;;;;;7.90;100.00;94507.16;1014970;29;20032;-73
2023/10/28 00:10:47;;;;;;;0.00;0.00;;;;;;;7.93;100.00;94506.59;1019307;29;20043;-73
2023/10/28 00:11:19;;;;;;;0.10;0.10;;;;;;;7.92;100.00;94511.06;1019594;29;20024;-71
2023/10/28 00:11:49;;;;;;;0.00;0.00;;;;;;;7.97;100.00;94513.59;1023805;28;20805;-73
2023/10/28 00:12:22;;;;;;;0.75;0.63;;;;;;;7.98;100.00;94514.38;1023890;28;20338;-74
2023/10/28 00:12:53;;;;;;;0.00;0.00;;;;;;;7.97;100.00;94512.81;1027834;28;20050;-73
2023/10/28 00:13:23;;;;;;;0.00;0.00;;;;;;;7.97;100.00;94507.59;1031205;28;20835;-73
2023/10/28 00:13:54;;;;;;;0.00;0.00;;;;;;;8.00;100.00;94510.44;1027756;28;20262;-72
2023/10/28 00:14:25;;;;;;;0.00;0.00;;;;;;;8.00;100.00;94507.06;1027373;28;20035;-72
2023/10/28 00:14:55;;;;;;;0.00;0.00;;;;;;;7.99;100.00;94511.50;1023114;28;20114;-74
2023/10/28 00:15:26;;;;;;;0.13;0.13;;;;;;;7.97;100.00;94502.38;1027289;28;20266;-74
2023/10/28 00:15:56;;;;;;;0.00;0.00;;;;;;;8.02;100.00;94515.41;1023509;28;20026;-71
2023/10/28 00:16:27;;;;;;;0.10;0.10;;;;;;;8.00;100.00;94513.06;1023246;29;20110;-73
2023/10/28 00:16:57;;;;;;;0.00;0.00;;;;;;;8.02;100.00;94505.72;1023493;28;20123;-74
2023/10/28 00:17:28;;;;;;;0.00;0.00;;;;;;;8.03;100.00;94511.72;1019147;29;20684;-74
2023/10/28 00:17:58;;;;;;;0.85;0.35;;;;;;;8.05;100.00;94517.47;1019385;29;20028;-73
2023/10/28 00:18:29;;;;;;;0.00;0.00;;;;;;;8.07;100.00;94507.50;1023222;29;20031;-73
2023/10/28 00:18:59;;;;;;;0.00;0.00;;;;;;;8.04;100.00;94502.81;1023595;28;20099;-74
2023/10/28 00:19:30;;;;;;;0.00;0.00;;;;;;;8.08;100.00;94524.75;1027207;28;20026;-74
2023/10/28 00:20:05;;;;;;;0.00;0.00;;;;;;;7.98;100.00;94498.69;1022371;28;20020;-69
2023/10/28 00:20:36;;;;;;;0.10;0.10;;;;;;;8.05;100.00;94509.63;1019324;29;20062;-71
2023/10/28 00:21:07;;;;;;;0.00;0.00;;;;;;;8.03;100.00;94509.91;1020084;29;20791;-73
2023/10/28 00:21:37;;;;;;;0.00;0.00;;;;;;;8.04;100.00;94519.28;1024580;28;20294;-73
2023/10/28 00:22:08;;;;;;;0.00;0.00;;;;;;;8.02;100.00;94504.97;1032240;28;20269;-72
2023/10/28 00:22:38;;;;;;;0.00;0.00;;;;;;;8.11;100.00;94521.56;1027299;28;20038;-73
2023/10/28 00:23:09;;;;;;;0.00;0.00;;;;;;;8.12;100.00;94509.31;1027354;28;20472;-72
2023/10/28 00:23:39;;;;;;;0.00;0.00;;;;;;;8.16;100.00;94520.75;1027154;28;20471;-73
2023/10/28 00:24:10;;;;;;;0.00;0.00;;;;;;;8.15;100.00;94519.97;1023304;28;20023;-72
2023/10/28 00:24:41;;;;;;;0.00;0.00;;;;;;;8.08;100.00;94514.31;1027178;28;20466;-72
2023/10/28 00:25:15;;;;;;;0.00;0.00;;;;;;;8.07;100.00;94515.34;1027154;28;20023;-72
2023/10/28 00:25:45;;;;;;;0.47;0.05;;;;;;;8.09;100.00;94509.84;1023807;28;20270;-72
2023/10/28 00:26:16;;;;;;;0.00;0.00;;;;;;;8.15;100.00;94525.22;1031032;28;20277;-75
2023/10/28 00:26:47;;;;;;;0.00;0.00;;;;;;;8.10;100.00;94509.56;1030903;28;20026;-72
2023/10/28 00:27:18;;;;;;;0.00;0.00;;;;;;;8.12;100.00;94517.91;1027147;28;20437;-72
2023/10/28 00:27:48;;;;;;;0.00;0.00;;;;;;;8.15;100.00;94519.97;1019071;29;20258;-72
2023/10/28 00:28:20;;;;;;;0.10;0.10;;;;;;;8.17;100.00;94523.06;1023221;29;20023;-73
2023/10/28 00:28:50;;;;;;;0.00;0.00;;;;;;;8.18;100.00;94514.19;1019490;29;20190;-71
2023/10/28 00:29:20;;;;;;;0.00;0.00;;;;;;;8.17;100.00;94515.25;1023578;28;20270;-73
2023/10/28 00:29:53;;;;;;;0.10;0.10;;;;;;;8.18;100.00;94514.19;1022315;28;20117;-70
2023/10/28 00:30:24;;;;;;;0.00;0.00;;;;;;;8.19;100.00;94515.75;1029767;28;20042;-74
2023/10/28 00:30:54;;;;;;;0.00;0.00;;;;;;;8.12;100.00;94504.84;1031116;28;20648;-73
2023/10/28 00:31:25;;;;;;;0.00;0.00;;;;;;;8.14;100.00;94507.94;1023357;28;20031;-71
2023/10/28 00:31:56;;;;;;;0.05;0.05;;;;;;;8.19;100.00;94526.19;1028195;28;20030;-74
2023/10/28 00:32:27;;;;;;;0.00;0.00;;;;;;;8.19;100.00;94513.13;1027094;28;20027;-74
2023/10/28 00:32:58;;;;;;;0.10;0.10;;;;;;;8.21;100.00;94518.84;1021185;28;20031;-72
2023/10/28 00:33:29;;;;;;;0.00;0.00;;;;;;;8.20;100.00;94508.69;1026933;28;20329;-72
2023/10/28 00:33:59;;;;;;;0.65;0.20;;;;;;;8.05;100.00;94488.72;1027340;28;20352;-71
2023/10/28 00:34:32;;;;;;;0.00;0.00;;;;;;;8.23;100.00;94513.34;1031470;28;20026;-73
2023/10/28 00:35:04;;;;;;;0.10;0.10;;;;;;;8.19;100.00;94507.91;1031335;28;20514;-72
2023/10/28 00:35:36;;;;;;;0.00;0.00;;;;;;;8.24;100.00;94513.06;1023767;28;20271;-71
2023/10/28 00:36:08;;;;;;;0.10;0.10;;;;;;;8.25;100.00;94519.09;1023209;29;20845;-73
2023/10/28 00:36:38;;;;;;;0.00;0.00;;;;;;;8.22;100.00;94515.19;1023606;28;20263;-72
2023/10/28 00:37:08;;;;;;;0.00;0.00;;;;;;;8.22;100.00;94517.03;1028079;28;20269;-72
2023/10/28 00:37:39;;;;;;;0.03;0.03;;;;;;;8.20;100.00;94516.53;1035514;28;20038;-73
2023/10/28 00:38:09;;;;;;;0.00;0.00;;;;;;;8.24;100.00;94512.28;1028770;28;20027;-73
2023/10/28 00:38:40;;;;;;;0.10;0.10;;;;;;;8.27;100.00;94516.97;1031322;28;20029;-72
2023/10/28 00:39:11;;;;;;;0.00;0.00;;;;;;;8.24;100.00;94514.91;1031263;28;20069;-73
2023/10/28 00:39:44;;;;;;;0.00;0.00;;;;;;;8.19;100.00;94510.53;1022844;29;20023;-74
2023/10/28 00:40:15;;;;;;;0.00;0.00;;;;;;;8.26;100.00;94515.41;1018510;29;20034;-72
2023/10/28 00:40:46;;;;;;;0.30;0.28;;;;;;;8.21;100.00;94505.00;1019045;29;20267;-72
2023/10/28 00:41:17;;;;;;;0.00;0.00;;;;;;;8.11;100.00;94494.66;1015053;29;20276;-73
2023/10/28 00:41:47;;;;;;;0.00;0.00;;;;;;;8.19;100.00;94510.53;1011644;29;20512;-72
2023/10/28 00:42:18;;;;;;;0.00;0.00;;;;;;;8.22;100.00;94509.97;1017761;29;20366;-73
2023/10/28 00:42:48;;;;;;;0.15;0.15;;;;;;;8.17;100.00;94496.94;1027429;28;20031;-72
2023/10/28 00:43:22;;;;;;;0.10;0.10;;;;;;;8.19;100.00;94510.53;1024346;28;20576;-72
2023/10/28 00:43:53;;;;;;;0.05;0.05;;;;;;;8.17;100.00;94502.19;1027663;28;20037;-74
2023/10/28 00:44:23;;;;;;;0.45;0.08;;;;;;;8.06;100.00;94490.28;1026574;28;20281;-72
2023/10/28 00:44:56;;;;;;;0.20;0.20;;;;;;;8.21;100.00;94512.84;1022999;28;20668;-74
2023/10/28 00:45:31;;;;;;;0.00;0.00;;;;;;;8.20;100.00;94512.06;1023547;28;20573;-74
2023/10/28 00:46:03;;;;;;;0.03;0.03;;;;;;;8.21;100.00;94508.41;1025224;28;20273;-72
2023/10/28 00:46:33;;;;;;;0.00;0.00;;;;;;;8.16;100.00;94500.63;1022939;29;20285;-71
2023/10/28 00:47:04;;;;;;;0.20;0.13;;;;;;;8.21;100.00;94513.63;1023220;28;20271;-73
2023/10/28 00:47:38;;;;;;;0.00;0.00;;;;;;;8.17;100.00;94512.63;1027440;28;20604;-72
2023/10/28 00:48:08;;;;;;;0.00;0.00;;;;;;;8.16;100.00;94508.47;1027171;28;20037;-74
2023/10/28 00:48:40;;;;;;;0.00;0.00;;;;;;;8.14;100.00;94518.41;1031139;28;20661;-72
2023/10/28 00:49:11;;;;;;;0.00;0.00;;;;;;;8.15;100.00;94513.94;1027854;28;20039;-73
2023/10/28 00:49:42;;;;;;;0.00;0.00;;;;;;;8.13;100.00;94522.09;1026945;28;20274;-72
2023/10/28 00:50:16;;;;;;;0.25;0.13;;;;;;;8.11;100.00;94513.72;1018950;29;20031;-72
2023/10/28 00:50:47;;;;;;;0.32;0.32;;;;;;;8.06;100.00;94511.19;1024577;28;20338;-73
2023/10/28 00:51:18;;;;;;;0.00;0.00;;;;;;;8.06;100.00;94505.97;1019093;29;20755;-72
2023/10/28 00:51:49;;;;;;;0.00;0.00;;;;;;;8.13;100.00;94523.91;1017598;29;20027;-74
2023/10/28 00:52:19;;;;;;;0.00;0.00;;;;;;;8.07;100.00;94504.91;1025949;28;20273;-72
2023/10/28 00:52:52;;;;;;;0.00;0.00;;;;;;;8.09;100.00;94515.84;1021659;28;20028;-71
2023/10/28 00:53:24;;;;;;;0.00;0.00;;;;;;;8.06;100.00;94513.78;1021502;29;20038;-71
2023/10/28 00:53:55;;;;;;;0.08;0.08;;;;;;;8.07;100.00;94512.72;1023540;28;20674;-73
2023/10/28 00:54:25;;;;;;;0.00;0.00;;;;;;;8.01;100.00;94503.38;1027306;28;20274;-72
2023/10/28 00:54:56;;;;;;;0.00;0.00;;;;;;;8.09;100.00;94521.09;1026657;28;20054;-73
2023/10/28 00:55:29;;;;;;;0.00;0.00;;;;;;;8.09;100.00;94523.69;1015408;29;20032;-73
2023/10/28 00:56:01;;;;;;;0.05;0.05;;;;;;;8.08;100.00;94516.91;1019005;29;20311;-73
2023/10/28 00:56:31;;;;;;;0.10;0.10;;;;;;;8.01;100.00;94506.00;1019860;29;20361;-72
2023/10/28 00:57:02;;;;;;;0.00;0.00;;;;;;;8.04;100.00;94516.66;1019719;29;20351;-73
2023/10/28 00:57:33;;;;;;;0.10;0.00;;;;;;;8.08;100.00;94518.72;1025897;28;20019;-73
2023/10/28 00:58:03;;;;;;;0.00;0.00;;;;;;;8.13;100.00;94518.69;1028545;28;20037;-74
2023/10/28 00:58:34;;;;;;;0.00;0.00;;;;;;;8.13;100.00;94516.09;1027106;28;20022;-73
2023/10/28 00:59:04;;;;;;;0.00;0.00;;;;;;;8.07;100.00;94520.56;1023129;29;20046;-73
2023/10/28 00:59:35;;;;;;;0.00;0.00;;;;;;;8.06;100.00;94515.63;1024038;28;20087;-74
2023/10/28 01:00:06;;;;;;;0.00;0.00;;;;;;;8.10;100.00;94520.00;1022633;29;20442;-73
2023/10/28 01:00:37;;;;;;;0.20;0.05;;;;;;;8.10;100.00;94525.25;1023064;29;20042;-74
2023/10/28 01:01:10;;;;;;;0.00;0.00;;;;;;;8.03;100.00;94517.72;1018975;29;20283;-71
2023/10/28 01:01:40;;;;;;;0.00;0.00;;;;;;;8.10;100.00;94524.47;1019697;29;20275;-72
2023/10/28 01:02:12;;;;;;;0.00;0.00;;;;;;;8.08;100.00;94513.50;1023305;29;20269;-72
2023/10/28 01:02:42;;;;;;;0.00;0.00;;;;;;;8.09;100.00;94515.09;1015367;29;20030;-72
2023/10/28 01:03:13;;;;;;;0.00;0.00;;;;;;;8.06;100.00;94513.78;1021437;29;20865;-74
2023/10/28 01:03:44;;;;;;;0.00;0.00;;;;;;;8.10;100.00;94516.63;1023176;29;20023;-71
2023/10/28 01:04:14;;;;;;;0.10;0.10;;;;;;;8.11;100.00;94518.94;1027285;28;20199;-73
2023/10/28 01:04:45;;;;;;;0.00;0.00;;;;;;;8.08;100.00;94523.94;1026881;28;20027;-73
2023/10/28 01:05:16;;;;;;;0.00;0.00;;;;;;;8.02;100.00;94510.19;1026929;28;20030;-73
2023/10/28 01:05:46;;;;;;;0.00;0.00;;;;;;;8.06;100.00;94521.63;1019479;29;20368;-72
2023/10/28 01:06:17;;;;;;;0.00;0.00;;;;;;;8.05;100.00;94522.69;1015375;29;20028;-71
2023/10/28 01:06:47;;;;;;;0.00;0.00;;;;;;;8.01;100.00;94524.28;1023052;29;20324;-74
2023/10/28 01:07:17;;;;;;;0.00;0.00;;;;;;;8.05;100.00;94520.09;1019189;29;20032;-75
2023/10/28 01:07:49;;;;;;;0.00;0.00;;;;;;;8.05;100.00;94520.09;1019207;29;20024;-73
2023/10/28 01:08:19;;;;;;;0.10;0.10;;;;;;;7.98;100.00;94511.75;1025880;28;20031;-73
2023/10/28 01:08:50;;;;;;;0.00;0.00;;;;;;;8.08;100.00;94522.16;1023099;29;20289;-73
2023/10/28 01:09:21;;;;;;;0.08;0.08;;;;;;;8.08;100.00;94523.94;1019221;29;20027;-72
2023/10/28 01:09:51;;;;;;;0.00;0.00;;;;;;;8.04;100.00;94513.28;1023801;28;20038;-72
2023/10/28 01:10:26;;;;;;;0.45;0.45;;;;;;;8.07;100.00;94523.19;1022986;29;20271;-74
2023/10/28 01:11:00;;;;;;;0.00;0.00;;;;;;;8.13;100.00;94524.69;1026913;28;20113;-72
2023/10/28 01:11:31;;;;;;;0.00;0.00;;;;;;;8.12;100.00;94522.38;1026701;28;20270;-74
2023/10/28 01:12:01;;;;;;;0.10;0.10;;;;;;;8.14;100.00;94521.00;1023132;29;20250;-73
2023/10/28 01:12:32;;;;;;;0.00;0.00;;;;;;;8.14;100.00;94521.00;1023037;29;20023;-73
2023/10/28 01:13:06;;;;;;;0.00;0.00;;;;;;;8.09;100.00;94513.25;1023177;29;20410;-73
2023/10/28 01:13:36;;;;;;;0.00;0.00;;;;;;;8.15;100.00;94527.81;1026893;28;20023;-73
2023/10/28 01:14:07;;;;;;;0.00;0.00;;;;;;;8.20;100.00;94526.97;1027097;28;20317;-74
2023/10/28 01:14:37;;;;;;;0.00;0.00;;;;;;;8.20;100.00;94526.97;1026858;28;20109;-73
2023/10/28 01:15:08;;;;;;;0.00;0.00;;;;;;;8.20;100.00;94527.75;1022729;28;20027;-73
2023/10/28 01:15:38;;;;;;;0.00;0.00;;;;;;;8.19;100.00;94530.66;1027063;28;20037;-72
2023/10/28 01:16:09;;;;;;;0.00;0.00;;;;;;;8.20;100.00;94527.75;1019173;29;20046;-72
2023/10/28 01:16:40;;;;;;;0.00;0.00;;;;;;;8.20;100.00;94530.38;1015052;29;20028;-72
2023/10/28 01:17:13;;;;;;;0.00;0.00;;;;;;;8.03;100.00;94507.28;1019172;29;20722;-74
2023/10/28 01:17:43;;;;;;;0.10;0.10;;;;;;;8.21;100.00;94524.06;1019999;28;20701;-74
2023/10/28 01:18:14;;;;;;;0.60;0.60;;;;;;;8.22;100.00;94520.44;1028065;28;20258;-74
2023/10/28 01:18:44;;;;;;;0.00;0.00;;;;;;;8.16;100.00;94521.53;1031140;28;20217;-70
2023/10/28 01:19:15;;;;;;;0.00;0.00;;;;;;;8.16;100.00;94505.84;1030864;28;20060;-73
2023/10/28 01:19:46;;;;;;;0.00;0.00;;;;;;;8.16;100.00;94511.06;1019035;29;20062;-73
2023/10/28 01:20:16;;;;;;;0.00;0.00;;;;;;;8.16;100.00;94505.84;1022379;29;20023;-73
2023/10/28 01:20:47;;;;;;;0.00;0.00;;;;;;;8.24;100.00;94520.91;1019419;29;20051;-71
2023/10/28 01:21:18;;;;;;;0.20;0.20;;;;;;;8.24;100.00;94520.91;1023268;28;20043;-73
2023/10/28 01:21:48;;;;;;;0.00;0.00;;;;;;;8.24;100.00;94515.69;1030985;28;20378;-71
2023/10/28 01:22:21;;;;;;;0.20;0.20;;;;;;;8.17;100.00;94504.78;1031228;28;20026;-71
2023/10/28 01:22:52;;;;;;;0.00;0.00;;;;;;;8.21;100.00;94520.69;1031121;28;20030;-72
2023/10/28 01:23:22;;;;;;;0.00;0.00;;;;;;;8.19;100.00;94513.13;1019337;29;21045;-73
2023/10/28 01:23:54;;;;;;;3.58;1.80;;;;;;;8.20;100.00;94527.75;1023091;29;20504;-73
2023/10/28 01:24:24;;;;;;;0.00;0.00;;;;;;;8.21;100.00;94520.69;1019143;29;20424;-74
2023/10/28 01:24:55;;;;;;;0.00;0.00;;;;;;;8.24;100.00;94523.53;1019372;29;20259;-72
2023/10/28 01:25:25;;;;;;;0.00;0.00;;;;;;;8.24;100.00;94523.53;1026705;28;20422;-72
2023/10/28 01:25:56;;;;;;;0.00;0.00;;;;;;;8.23;100.00;94521.97;1015086;29;20031;-72
2023/10/28 01:26:27;;;;;;;0.08;0.08;;;;;;;8.21;100.00;94513.63;1023090;28;20039;-74
2023/10/28 01:26:59;;;;;;;0.00;0.00;;;;;;;8.19;100.00;94512.38;1023008;29;20682;-73
2023/10/28 01:27:30;;;;;;;1.10;0.55;;;;;;;8.21;100.00;94510.22;1023470;28;20271;-75
2023/10/28 01:28:00;;;;;;;0.00;0.00;;;;;;;8.20;100.00;94511.31;1027003;28;20642;-75
2023/10/28 01:28:31;;;;;;;0.00;0.00;;;;;;;8.19;100.00;94515.75;1023270;28;20019;-72
2023/10/28 01:29:01;;;;;;;0.10;0.10;;;;;;;8.19;100.00;94514.97;1023190;28;20027;-74
2023/10/28 01:29:33;;;;;;;0.00;0.00;;;;;;;8.16;100.00;94516.31;1023039;29;20031;-73
2023/10/28 01:30:05;;;;;;;0.15;0.15;;;;;;;8.11;100.00;94511.13;1022388;28;20039;-71
2023/10/28 01:30:37;;;;;;;0.10;0.10;;;;;;;8.18;100.00;94510.78;1027620;28;20270;-72
2023/10/28 01:31:08;;;;;;;0.03;0.03;;;;;;;8.21;100.00;94510.22;1031813;28;20276;-72
2023/10/28 01:31:38;;;;;;;0.00;0.00;;;;;;;8.20;100.00;94506.84;1026898;28;20305;-73
2023/10/28 01:32:09;;;;;;;0.00;0.00;;;;;;;8.21;100.00;94518.06;1027197;28;20031;-73
2023/10/28 01:32:41;;;;;;;0.00;0.00;;;;;;;8.24;100.00;94513.06;1031023;28;20409;-73
2023/10/28 01:33:11;;;;;;;0.10;0.10;;;;;;;8.21;100.00;94511.00;1023400;28;20566;-73
2023/10/28 01:33:42;;;;;;;0.00;0.00;;;;;;;8.19;100.00;94510.53;1026821;28;20270;-74
2023/10/28 01:34:12;;;;;;;0.00;0.00;;;;;;;8.16;100.00;94505.84;1022878;29;20027;-73
2023/10/28 01:34:49;;;;;;;0.00;0.00;;;;;;;8.15;100.00;94504.31;1026996;28;20027;-75
2023/10/28 01:35:19;;;;;;;0.05;0.05;;;;;;;8.20;100.00;94517.31;1022804;28;20027;-72
2023/10/28 01:35:50;;;;;;;0.00;0.00;;;;;;;8.20;100.00;94517.31;1023151;29;20278;-73
2023/10/28 01:36:20;;;;;;;0.10;0.05;;;;;;;8.18;100.00;94514.19;1022935;29;20095;-72
2023/10/28 01:36:51;;;;;;;0.05;0.05;;;;;;;8.14;100.00;94502.72;1023355;28;20057;-72
2023/10/28 01:37:21;;;;;;;0.00;0.00;;;;;;;8.20;100.00;94511.31;1023071;28;20083;-72
2023/10/28 01:37:52;;;;;;;0.00;0.00;;;;;;;8.13;100.00;94495.94;1023003;29;20034;-73
2023/10/28 01:38:23;;;;;;;0.00;0.00;;;;;;;8.10;100.00;94495.72;1026796;28;20049;-73
2023/10/28 01:38:54;;;;;;;0.00;0.00;;;;;;;8.14;100.00;94507.94;1027021;28;20434;-73
2023/10/28 01:39:24;;;;;;;0.00;0.00;;;;;;;8.12;100.00;94507.47;1023129;28;20279;-74
2023/10/28 01:39:54;;;;;;;0.00;0.00;;;;;;;8.13;100.00;94508.25;1022432;29;20491;-74
2023/10/28 01:40:26;;;;;;;0.00;0.00;;;;;;;8.13;100.00;94510.84;1014844;29;20032;-74
2023/10/28 01:40:57;;;;;;;0.47;0.47;;;;;;;8.13;100.00;94506.41;1019184;29;20114;-72
2023/10/28 01:41:27;;;;;;;0.00;0.00;;;;;;;8.17;100.00;94501.41;1030905;28;20266;-75
2023/10/28 01:41:58;;;;;;;0.00;0.00;;;;;;;8.22;100.00;94507.34;1031128;28;20022;-74
2023/10/28 01:42:28;;;;;;;0.00;0.00;;;;;;;8.22;100.00;94504.75;1030870;28;20064;-73
2023/10/28 01:42:59;;;;;;;0.00;0.00;;;;;;;8.24;100.00;94512.28;1027154;28;20597;-74
2023/10/28 01:43:30;;;;;;;0.00;0.00;;;;;;;8.25;100.00;94504.19;1018883;29;20035;-71
2023/10/28 01:44:00;;;;;;;0.00;0.00;;;;;;;8.27;100.00;94514.34;1014942;29;20272;-73
2023/10/28 01:44:34;;;;;;;0.00;0.00;;;;;;;8.23;100.00;94501.06;1018783;29;20031;-73
2023/10/28 01:45:15;;;;;;;0.00;0.00;;;;;;;8.33;100.00;94505.41;1022852;29;20800;-74
2023/10/28 01:45:45;;;;;;;;;;;;;;;8.33;100.00;94507.25;1019345;29;20275;-74
2023/10/28 01:46:16;;;;;;;0.00;0.00;;;;;;;8.32;100.00;94508.31;1018972;29;19918;-73
2023/10/28 01:46:46;;;;;;;0.00;0.00;;;;;;;8.29;100.00;94509.66;1022700;29;20529;-71
2023/10/28 01:47:17;;;;;;;0.00;0.00;;;;;;;8.23;100.00;94495.84;1019020;29;20136;-73
2023/10/28 01:47:47;;;;;;;0.00;0.00;;;;;;;8.30;100.00;94505.19;1022988;29;20031;-72
2023/10/28 01:48:18;;;;;;;0.10;0.10;;;;;;;8.28;100.00;94505.44;1018938;29;20502;-74
2023/10/28 01:48:49;;;;;;;0.00;0.00;;;;;;;8.27;100.00;94499.44;1018871;29;20167;-72
2023/10/28 01:49:19;;;;;;;0.00;0.00;;;;;;;8.26;100.00;94505.75;1019128;29;20032;-73
2023/10/28 01:49:50;;;;;;;0.00;0.00;;;;;;;8.29;100.00;94507.03;1022678;28;20035;-72
2023/10/28 01:50:21;;;;;;;0.00;0.00;;;;;;;8.27;100.00;94511.75;1026938;28;20038;-72
2023/10/28 01:50:51;;;;;;;0.00;0.00;;;;;;;8.25;100.00;94496.34;1030906;28;20011;-73
2023/10/28 01:51:22;;;;;;;0.00;0.00;;;;;;;8.19;100.00;94492.25;1030791;28;20272;-74
2023/10/28 01:51:52;;;;;;;0.00;0.00;;;;;;;8.12;100.00;94488.41;1019123;29;20032;-74
2023/10/28 01:52:23;;;;;;;0.00;0.00;;;;;;;8.24;100.00;94496.63;1018914;29;20028;-74
2023/10/28 01:52:53;;;;;;;0.00;0.00;;;;;;;8.22;100.00;94491.69;1019021;29;20042;-74
2023/10/28 01:53:25;;;;;;;0.00;0.00;;;;;;;8.29;100.00;94498.41;1018951;29;20621;-74
2023/10/28 01:53:55;;;;;;;0.00;0.00;;;;;;;8.25;100.00;94492.97;1022947;29;20853;-73
2023/10/28 01:54:25;;;;;;;0.00;0.00;;;;;;;8.31;100.00;94509.34;1022937;29;20274;-74
2023/10/28 01:54:56;;;;;;;0.00;0.00;;;;;;;8.36;100.00;94504.84;1022893;29;20026;-74
2023/10/28 01:55:26;;;;;;;0.00;0.00;;;;;;;8.36;100.00;94504.09;1022822;29;20027;-72
2023/10/28 01:55:57;;;;;;;0.00;0.00;;;;;;;8.32;100.00;94503.88;1022825;28;20016;-73
2023/10/28 01:56:28;;;;;;;0.30;0.08;;;;;;;8.29;100.00;94508.88;1027161;28;20022;-73
2023/10/28 01:57:00;;;;;;;0.00;0.00;;;;;;;8.33;100.00;94515.09;1030995;28;20756;-73
2023/10/28 01:57:30;;;;;;;4.45;0.55;;;;;;;8.29;100.00;94501.03;1026799;28;20019;-73
2023/10/28 01:58:01;;;;;;;0.10;0.10;;;;;;;8.33;100.00;94504.63;1022714;29;20354;-73
2023/10/28 01:58:32;;;;;;;0.00;0.00;;;;;;;8.34;100.00;94506.19;1023318;28;20427;-74
2023/10/28 01:59:03;;;;;;;0.00;0.00;;;;;;;8.36;100.00;94498.84;1023127;29;20035;-73
2023/10/28 01:59:34;;;;;;;0.00;0.00;;;;;;;8.33;100.00;94499.41;1022892;28;20264;-73
2023/10/28 02:00:12;;;;;;;0.00;0.00;;;;;;;8.32;100.00;94503.09;1026294;28;20081;-74
2023/10/28 02:00:42;;;;;;;0.00;0.00;;;;;;;8.36;100.00;94510.09;1030897;28;20057;-72
2023/10/28 02:01:13;;;;;;;0.00;0.00;;;;;;;8.33;100.00;94505.41;1030588;28;20795;-73
2023/10/28 02:01:43;;;;;;;0.10;0.10;;;;;;;8.39;100.00;94509.56;1030735;28;20387;-73
2023/10/28 02:02:13;;;;;;;0.00;0.00;;;;;;;8.40;100.00;94505.88;1026898;28;20462;-73
2023/10/28 02:02:47;;;;;;;0.10;0.10;;;;;;;8.39;100.00;94511.41;1026831;28;20294;-74
2023/10/28 02:03:17;;;;;;;0.00;0.00;;;;;;;8.39;100.00;94508.78;1027127;28;20077;-73
2023/10/28 02:03:50;;;;;;;0.00;0.00;;;;;;;8.38;100.00;94507.22;1022683;29;20274;-74
2023/10/28 02:04:20;;;;;;;0.00;0.00;;;;;;;8.38;100.00;94507.22;1022827;29;20530;-73
2023/10/28 02:04:51;;;;;;;0.00;0.00;;;;;;;8.41;100.00;94514.50;1019175;29;20275;-71
2023/10/28 02:05:22;;;;;;;0.00;0.00;;;;;;;8.39;100.00;94514.00;1019523;29;20724;-72
2023/10/28 02:05:52;;;;;;;0.00;0.00;;;;;;;8.40;100.00;94512.94;1018853;29;20463;-73
2023/10/28 02:06:23;;;;;;;0.08;0.08;;;;;;;8.40;100.00;94515.56;1019248;28;20051;-73
2023/10/28 02:06:54;;;;;;;0.00;0.00;;;;;;;8.43;100.00;94518.41;1023110;28;20553;-72
2023/10/28 02:07:24;;;;;;;0.00;0.00;;;;;;;8.45;100.00;94510.25;1019049;29;20659;-74
2023/10/28 02:07:55;;;;;;;0.00;0.00;;;;;;;8.43;100.00;94507.16;1022852;29;20035;-74
2023/10/28 02:08:25;;;;;;;0.00;0.00;;;;;;;8.41;100.00;94504.81;1019009;29;20560;-73
2023/10/28 02:08:56;;;;;;;0.17;0.17;;;;;;;8.49;100.00;94508.66;1011251;29;20036;-74
2023/10/28 02:09:27;;;;;;;0.20;0.20;;;;;;;8.46;100.00;94514.44;1011161;29;20508;-73
2023/10/28 02:09:58;;;;;;;4.63;2.17;;;;;;;8.43;100.00;94510.56;1010506;29;20032;-72
2023/10/28 02:10:29;;;;;;;0.40;0.40;;;;;;;8.41;100.00;94506.66;1015389;29;20272;-72
2023/10/28 02:10:59;;;;;;;0.00;0.00;;;;;;;8.41;100.00;94517.88;1026011;28;20031;-72
2023/10/28 02:11:32;;;;;;;0.00;0.00;;;;;;;8.41;100.00;94506.66;1029928;28;20037;-72
2023/10/28 02:12:04;;;;;;;0.00;0.00;;;;;;;8.40;100.00;94512.94;1034598;28;20104;-75
2023/10/28 02:12:35;;;;;;;0.10;0.10;;;;;;;8.39;100.00;94519.25;1026898;28;20553;-72
2023/10/28 02:13:05;;;;;;;0.00;0.00;;;;;;;8.35;100.00;94521.59;1026571;28;20278;-73
2023/10/28 02:13:36;;;;;;;0.50;0.38;;;;;;;8.39;100.00;94506.16;1027125;28;20041;-73
2023/10/28 02:14:09;;;;;;;0.00;0.00;;;;;;;8.38;100.00;94512.44;1026650;28;20031;-72
2023/10/28 02:14:40;;;;;;;0.00;0.00;;;;;;;8.31;100.00;94502.28;1023335;28;20451;-73
2023/10/28 02:15:11;;;;;;;1.48;0.38;;;;;;;8.37;100.00;94506.41;1026752;28;20273;-73
2023/10/28 02:15:43;;;;;;;0.00;0.00;;;;;;;8.29;100.00;94498.41;1022828;29;20282;-74
2023/10/28 02:16:14;;;;;;;0.28;0.28;;;;;;;8.35;100.00;94507.72;1023182;28;20260;-73
2023/10/28 02:16:45;;;;;;;0.00;0.00;;;;;;;8.36;100.00;94514.53;1027301;28;20357;-73
2023/10/28 02:17:15;;;;;;;0.00;0.00;;;;;;;8.37;100.00;94511.63;1027390;28;20293;-74
2023/10/28 02:17:46;;;;;;;0.00;0.00;;;;;;;8.38;100.00;94507.22;1030799;28;20034;-72
2023/10/28 02:18:18;;;;;;;0.00;0.00;;;;;;;8.32;100.00;94503.09;1018629;29;20419;-72
2023/10/28 02:18:49;;;;;;;0.00;0.00;;;;;;;8.36;100.00;94509.31;1015424;29;20027;-74
2023/10/28 02:19:20;;;;;;;0.00;0.00;;;;;;;8.31;100.00;94506.75;1022624;29;20278;-71
2023/10/28 02:19:51;;;;;;;0.00;0.00;;;;;;;8.38;100.00;94517.66;1030403;28;20129;-72
2023/10/28 02:20:21;;;;;;;0.13;0.13;;;;;;;8.38;100.00;94517.66;1026601;28;20736;-73
2023/10/28 02:20:54;;;;;;;0.55;0.55;;;;;;;8.39;100.00;94511.41;1026659;28;20057;-72
2023/10/28 02:21:24;;;;;;;0.00;0.00;;;;;;;8.40;100.00;94515.56;1023323;28;20392;-73
2023/10/28 02:21:55;;;;;;;0.55;0.55;;;;;;;8.39;100.00;94508.78;1029836;28;20282;-74
2023/10/28 02:22:25;;;;;;;0.00;0.00;;;;;;;8.39;100.00;94519.25;1026544;28;20035;-72
2023/10/28 02:22:56;;;;;;;0.00;0.00;;;;;;;8.38;100.00;94515.06;1026340;28;20038;-73
2023/10/28 02:23:26;;;;;;;0.13;0.13;;;;;;;8.31;100.00;94507.50;1022019;28;20071;-74
2023/10/28 02:23:57;;;;;;;0.10;0.10;;;;;;;8.24;100.00;94497.38;1018381;28;20375;-72
2023/10/28 02:24:28;;;;;;;0.00;0.00;;;;;;;8.37;100.00;94516.09;1023087;28;20082;-73
2023/10/28 02:24:58;;;;;;;0.00;0.00;;;;;;;8.31;100.00;94514.56;1015282;29;20424;-72
2023/10/28 02:25:28;;;;;;;0.00;0.00;;;;;;;8.36;100.00;94514.53;1015355;29;20243;-72
2023/10/28 02:25:59;;;;;;;0.00;0.00;;;;;;;8.33;100.00;94507.25;1023051;28;20031;-72
2023/10/28 02:26:30;;;;;;;0.00;0.00;;;;;;;8.33;100.00;94513.25;1018537;29;20035;-73